METAR Data
IDs: Format: Raw Decoded Include TAF

Data at: 2006 UTC 23 Oct 2021

LKNA 232000Z 29008KT CAVOK 02/M02 Q1030 NOSIG RMK BLU BLU